Time;durP1;ratioP1;P1;durP2;ratioP2;P2;SDS_P1;SDS_P2;PMS_P1;PMS_P2;Temp;Humidity;BMP_temperature;BMP_pressure;BME280_temperature;BME280_humidity;BME280_pressure;Samples;Min_cycle;Max_cycle;Signal;HPM_P1;HPM_P2
2022/11/26 00:01:00;;;;;;;3.78;2.20;;;17.90;46.50;;;;;;5037063;28;20060;-59
2022/11/26 00:03:26;;;;;;;5.18;2.42;;;17.90;46.50;;;;;;5038432;28;20047;-57
2022/11/26 00:05:54;;;;;;;6.28;2.58;;;17.90;46.50;;;;;;5037036;28;20338;-58
2022/11/26 00:08:31;;;;;;;8.30;3.08;;;17.90;46.40;;;;;;5037121;28;20034;-58
2022/11/26 00:10:57;;;;;;;4.15;2.30;;;17.90;46.40;;;;;;5037840;28;20103;-59
2022/11/26 00:13:26;;;;;;;4.85;2.60;;;17.90;46.40;;;;;;5037682;28;20033;-57
2022/11/26 00:15:52;;;;;;;4.93;2.40;;;17.90;46.30;;;;;;5036994;28;20116;-55
2022/11/26 00:18:18;;;;;;;4.90;2.63;;;17.90;46.30;;;;;;5042121;28;20053;-57
2022/11/26 00:20:47;;;;;;;6.63;2.50;;;17.90;46.30;;;;;;5057777;28;20420;-55
2022/11/26 00:23:22;;;;;;;4.88;2.30;;;17.90;46.30;;;;;;5039946;28;20036;-55
2022/11/26 00:25:52;;;;;;;7.03;2.40;;;17.90;46.30;;;;;;5039646;28;20451;-56
2022/11/26 00:28:26;;;;;;;5.18;2.50;;;17.90;46.30;;;;;;5057252;28;20044;-59
2022/11/26 00:30:54;;;;;;;6.50;2.35;;;17.90;46.20;;;;;;5056932;28;20048;-56
2022/11/26 00:33:21;;;;;;;5.03;2.58;;;17.90;46.20;;;;;;5040508;28;20017;-56
2022/11/26 00:35:50;;;;;;;6.45;2.60;;;17.90;46.20;;;;;;5039776;28;20462;-56
2022/11/26 00:38:19;;;;;;;4.60;2.30;;;17.90;46.20;;;;;;5039808;28;20033;-56
2022/11/26 00:40:45;;;;;;;5.57;2.15;;;17.90;46.20;;;;;;5057371;28;20037;-56
2022/11/26 00:43:13;;;;;;;7.25;3.08;;;17.90;46.10;;;;;;5039630;28;20032;-57
2022/11/26 00:45:39;;;;;;;4.75;2.28;;;17.90;46.10;;;;;;5039646;28;20064;-58
2022/11/26 00:48:05;;;;;;;7.05;2.40;;;17.90;46.10;;;;;;5056751;28;20445;-59
2022/11/26 00:50:39;;;;;;;6.32;2.67;;;17.90;46.00;;;;;;5056938;28;20062;-56
2022/11/26 00:53:05;;;;;;;5.40;2.63;;;17.90;46.00;;;;;;5056759;28;20040;-56
2022/11/26 00:55:38;;;;;;;6.28;2.65;;;17.90;46.00;;;;;;5039308;28;20029;-56
2022/11/26 00:58:05;;;;;;;4.78;2.15;;;17.90;45.90;;;;;;5056904;28;20060;-57
2022/11/26 01:00:33;;;;;;;5.03;2.25;;;17.90;45.90;;;;;;5056922;28;20413;-58
2022/11/26 01:03:00;;;;;;;5.10;2.67;;;17.90;45.90;;;;;;5056799;28;20098;-58
2022/11/26 01:05:32;;;;;;;7.90;2.50;;;17.90;45.90;;;;;;5056575;28;20106;-56
2022/11/26 01:08:19;;;;;;;4.45;2.15;;;17.90;45.80;;;;;;5056393;28;20449;-57
2022/11/26 01:10:45;;;;;;;4.65;1.83;;;17.90;45.80;;;;;;5056529;28;20059;-56
2022/11/26 01:13:11;;;;;;;4.43;2.17;;;17.90;45.80;;;;;;5057364;28;20033;-56
2022/11/26 01:15:36;;;;;;;4.82;2.28;;;17.90;45.70;;;;;;5056890;28;20033;-56
2022/11/26 01:18:14;;;;;;;6.55;2.53;;;17.90;45.70;;;;;;5038759;28;20364;-59
2022/11/26 01:20:40;;;;;;;4.50;1.95;;;17.90;45.70;;;;;;5038942;28;20063;-58
2022/11/26 01:23:09;;;;;;;5.93;2.30;;;17.90;45.60;;;;;;5056674;28;20084;-54
2022/11/26 01:25:35;;;;;;;5.05;2.38;;;17.80;45.60;;;;;;5056585;28;20037;-51
2022/11/26 01:28:00;;;;;;;6.53;2.55;;;17.80;45.60;;;;;;5056183;28;20040;-54
2022/11/26 01:30:29;;;;;;;3.33;1.77;;;17.80;45.50;;;;;;5038676;28;20060;-57
2022/11/26 01:32:56;;;;;;;5.10;2.50;;;17.80;45.50;;;;;;5057213;28;20051;-55
2022/11/26 01:35:22;;;;;;;4.50;2.33;;;17.90;45.50;;;;;;5039211;28;20112;-57
2022/11/26 01:37:48;;;;;;;8.02;2.75;;;17.80;45.40;;;;;;5022117;28;20057;-55
2022/11/26 01:40:35;;;;;;;4.82;2.55;;;17.80;45.40;;;;;;5056303;28;20052;-55
2022/11/26 01:43:09;;;;;;;5.72;2.42;;;17.90;45.40;;;;;;5037343;28;20082;-58
2022/11/26 01:45:35;;;;;;;4.40;2.15;;;17.80;45.40;;;;;;5038933;28;20456;-56
2022/11/26 01:48:01;;;;;;;5.57;2.45;;;17.80;45.40;;;;;;5038472;28;20040;-55
2022/11/26 01:50:30;;;;;;;5.75;2.50;;;17.80;45.30;;;;;;5038330;28;20106;-54
2022/11/26 01:52:59;;;;;;;6.57;2.58;;;17.80;45.30;;;;;;5038194;28;20033;-54
2022/11/26 01:55:35;;;;;;;5.28;2.47;;;17.80;45.30;;;;;;5038176;28;20037;-58
2022/11/26 01:58:02;;;;;;;6.45;2.95;;;17.80;45.30;;;;;;5055483;28;20442;-53
2022/11/26 02:00:28;;;;;;;5.35;2.60;;;17.80;45.20;;;;;;5055305;28;20503;-54
2022/11/26 02:02:54;;;;;;;4.47;2.05;;;17.80;45.90;;;;;;5038416;28;20037;-51
2022/11/26 02:05:24;;;;;;;4.45;2.60;;;17.80;45.20;;;;;;5055836;28;20039;-51
2022/11/26 02:07:51;;;;;;;6.03;2.25;;;17.80;45.20;;;;;;5038013;28;20357;-55
2022/11/26 02:10:18;;;;;;;5.38;2.25;;;17.80;45.20;;;;;;5038032;28;20028;-57
2022/11/26 02:12:44;;;;;;;3.42;1.95;;;17.80;45.20;;;;;;5055420;28;20167;-55
2022/11/26 02:15:11;;;;;;;3.80;2.00;;;17.80;45.20;;;;;;5038393;28;20328;-50
2022/11/26 02:17:46;;;;;;;6.80;2.70;;;17.80;45.20;;;;;;5038199;28;20036;-54
2022/11/26 02:20:42;;;;;;;4.85;2.38;;;17.80;45.10;;;;;;5055312;28;20041;-58
2022/11/26 02:23:47;;;;;;;5.45;2.42;;;17.80;45.10;;;;;;5055303;28;20033;-55
2022/11/26 02:26:45;;;;;;;6.17;2.57;;;17.80;45.10;;;;;;5023799;28;20052;-54
2022/11/26 02:29:18;;;;;;;6.63;2.47;;;17.80;45.10;;;;;;5037510;28;20025;-54
2022/11/26 02:32:04;;;;;;;4.93;2.10;;;17.80;45.10;;;;;;5055169;28;20321;-53
2022/11/26 02:34:58;;;;;;;5.95;2.30;;;17.80;45.10;;;;;;5037854;28;20324;-58
2022/11/26 02:37:30;;;;;;;5.55;2.17;;;17.80;45.10;;;;;;5037424;28;20041;-57
2022/11/26 02:39:56;;;;;;;6.20;2.30;;;17.80;45.10;;;;;;5054988;28;20108;-58
2022/11/26 02:42:31;;;;;;;5.93;2.78;;;17.80;45.10;;;;;;5037502;28;20098;-55
2022/11/26 02:45:10;;;;;;;4.32;2.38;;;17.80;45.10;;;;;;5055257;28;20083;-57
2022/11/26 02:47:38;;;;;;;6.45;2.58;;;17.70;45.00;;;;;;5037395;28;20487;-58
2022/11/26 02:50:14;;;;;;;5.70;2.60;;;17.80;45.10;;;;;;5055272;28;20045;-58
2022/11/26 02:52:41;;;;;;;5.72;2.50;;;17.80;45.10;;;;;;5054925;28;20028;-55
2022/11/26 02:55:10;;;;;;;5.72;2.50;;;17.80;45.10;;;;;;5037123;28;20037;-56
2022/11/26 02:57:56;;;;;;;4.60;2.45;;;17.80;45.10;;;;;;5037638;28;20114;-57
2022/11/26 03:00:22;;;;;;;7.38;2.72;;;17.70;45.00;;;;;;5037222;28;20171;-54
2022/11/26 03:03:07;;;;;;;6.10;2.22;;;17.70;45.00;;;;;;5036993;28;20029;-50
2022/11/26 03:05:34;;;;;;;;;;;17.80;45.00;;;;;;5037751;28;20392;-53
2022/11/26 03:08:03;;;;;;;6.05;2.40;;;17.80;45.00;;;;;;5037047;28;19988;-53
2022/11/26 03:10:30;;;;;;;5.57;2.45;;;17.70;45.60;;;;;;5037145;28;20029;-58
2022/11/26 03:12:56;;;;;;;5.95;2.63;;;17.70;44.90;;;;;;5020563;28;20041;-55
2022/11/26 03:15:22;;;;;;;3.83;2.20;;;17.70;45.00;;;;;;5054630;28;20202;-57
2022/11/26 03:17:49;;;;;;;5.15;2.63;;;17.70;44.90;;;;;;5054688;28;20024;-57
2022/11/26 03:20:16;;;;;;;6.55;2.80;;;17.70;45.00;;;;;;5036857;28;20048;-55
2022/11/26 03:22:42;;;;;;;4.72;2.50;;;17.70;44.90;;;;;;5055497;28;20321;-57
2022/11/26 03:25:09;;;;;;;5.80;2.60;;;17.70;44.80;;;;;;5054908;28;20041;-58
2022/11/26 03:27:35;;;;;;;3.70;2.08;;;17.70;44.80;;;;;;5037217;28;20029;-51
2022/11/26 03:30:01;;;;;;;5.28;2.58;;;17.70;44.80;;;;;;5054671;28;20052;-56
2022/11/26 03:32:26;;;;;;;6.03;2.83;;;17.70;44.70;;;;;;5054577;28;20341;-59
2022/11/26 03:34:52;;;;;;;4.47;2.17;;;17.70;44.70;;;;;;5054109;28;20059;-53
2022/11/26 03:37:18;;;;;;;5.20;2.50;;;17.70;44.60;;;;;;5054581;28;20512;-54
2022/11/26 03:39:44;;;;;;;5.00;2.17;;;17.70;44.50;;;;;;5054355;28;20039;-54
2022/11/26 03:42:10;;;;;;;3.28;2.35;;;17.70;44.50;;;;;;5054295;28;20053;-57
2022/11/26 03:44:36;;;;;;;5.20;2.58;;;17.80;44.60;;;;;;5054366;28;20380;-54
2022/11/26 03:47:01;;;;;;;4.35;2.20;;;17.70;44.50;;;;;;5037416;28;20029;-54
2022/11/26 03:49:27;;;;;;;5.20;2.53;;;17.70;44.50;;;;;;5054230;28;20060;-56
2022/11/26 03:51:53;;;;;;;4.65;2.45;;;17.70;44.50;;;;;;5054210;28;20056;-57
2022/11/26 03:54:19;;;;;;;4.38;2.65;;;17.70;44.50;;;;;;5054475;28;20062;-59
2022/11/26 03:56:45;;;;;;;5.18;2.33;;;17.70;44.50;;;;;;5054518;28;20055;-55
2022/11/26 03:59:10;;;;;;;4.55;2.22;;;17.70;44.50;;;;;;5054254;28;20097;-55
2022/11/26 04:01:37;;;;;;;6.80;2.80;;;17.70;44.50;;;;;;5054549;28;20468;-52
2022/11/26 04:04:03;;;;;;;5.07;2.53;;;17.70;44.50;;;;;;5054489;28;20257;-57
2022/11/26 04:06:29;;;;;;;6.10;2.60;;;17.70;44.50;;;;;;5039438;28;20467;-53
2022/11/26 04:08:55;;;;;;;5.32;2.70;;;17.70;44.50;;;;;;5058131;28;20435;-55
2022/11/26 04:11:20;;;;;;;4.03;2.22;;;17.70;44.50;;;;;;5040103;28;20041;-56
2022/11/26 04:13:46;;;;;;;6.03;2.80;;;17.70;44.40;;;;;;5057857;28;20420;-57
2022/11/26 04:16:12;;;;;;;4.78;2.55;;;17.70;44.40;;;;;;5040639;28;20028;-58
2022/11/26 04:18:38;;;;;;;4.70;2.35;;;17.70;44.40;;;;;;5039778;28;20114;-59
2022/11/26 04:21:07;;;;;;;4.93;2.50;;;17.70;44.40;;;;;;5057801;28;20029;-57
2022/11/26 04:23:34;;;;;;;5.40;2.30;;;17.70;44.40;;;;;;5058001;28;20036;-55
2022/11/26 04:26:00;;;;;;;5.25;2.45;;;17.70;44.60;;;;;;5039967;28;20052;-57
2022/11/26 04:28:25;;;;;;;6.60;2.97;;;17.70;44.30;;;;;;5039982;28;20098;-54
2022/11/26 04:30:51;;;;;;;4.18;2.33;;;17.70;44.30;;;;;;5057253;28;20494;-57
2022/11/26 04:33:17;;;;;;;4.88;2.30;;;17.70;44.30;;;;;;5057300;28;20127;-52
2022/11/26 04:35:43;;;;;;;5.90;2.60;;;17.70;44.30;;;;;;5057024;28;20111;-54
2022/11/26 04:38:09;;;;;;;5.05;2.33;;;17.70;44.30;;;;;;5057782;28;20033;-58
2022/11/26 04:40:35;;;;;;;4.40;2.38;;;17.70;44.30;;;;;;5039723;28;20032;-58
2022/11/26 04:43:01;;;;;;;4.20;2.38;;;17.60;44.30;;;;;;5039748;28;20491;-54
2022/11/26 04:45:27;;;;;;;4.95;2.15;;;17.70;44.30;;;;;;5039435;28;20021;-56
2022/11/26 04:47:53;;;;;;;4.90;2.45;;;17.70;44.30;;;;;;5057455;28;20039;-57
2022/11/26 04:50:19;;;;;;;5.53;2.40;;;17.70;44.40;;;;;;5039062;28;20036;-58
2022/11/26 04:52:48;;;;;;;5.03;2.40;;;17.70;44.40;;;;;;5039474;28;20051;-58
2022/11/26 04:55:15;;;;;;;4.25;2.65;;;17.60;44.30;;;;;;5039453;28;20037;-56
2022/11/26 04:57:41;;;;;;;4.50;2.65;;;17.60;44.30;;;;;;5056959;28;20040;-55
2022/11/26 05:00:07;;;;;;;5.10;2.50;;;17.60;44.30;;;;;;5057071;28;20025;-58
2022/11/26 05:02:33;;;;;;;4.53;2.58;;;17.70;44.30;;;;;;5056549;28;20029;-59
2022/11/26 05:04:59;;;;;;;6.18;2.72;;;17.60;44.30;;;;;;5057005;28;20037;-58
2022/11/26 05:07:25;;;;;;;5.90;2.53;;;17.70;44.30;;;;;;5039421;28;20056;-60
2022/11/26 05:09:51;;;;;;;4.57;2.28;;;17.60;44.30;;;;;;5038635;28;20074;-60
2022/11/26 05:12:16;;;;;;;4.70;2.58;;;17.60;44.30;;;;;;5039108;28;20111;-58
2022/11/26 05:14:42;;;;;;;4.53;2.47;;;17.60;44.30;;;;;;5056712;28;20033;-57
2022/11/26 05:17:08;;;;;;;7.63;3.08;;;17.70;44.30;;;;;;5055576;28;20036;-59
2022/11/26 05:19:34;;;;;;;5.47;2.60;;;17.70;44.30;;;;;;5038850;28;20057;-53
2022/11/26 05:22:00;;;;;;;6.03;2.75;;;17.60;44.30;;;;;;5038972;28;20112;-54
2022/11/26 05:24:26;;;;;;;4.55;2.70;;;17.60;44.30;;;;;;5038827;28;20054;-55
2022/11/26 05:26:51;;;;;;;4.20;2.53;;;17.60;44.30;;;;;;5056712;28;20112;-56
2022/11/26 05:29:17;;;;;;;5.32;2.40;;;17.60;44.30;;;;;;5038899;28;20025;-57
2022/11/26 05:31:43;;;;;;;5.72;2.83;;;17.60;44.30;;;;;;5056051;28;20025;-58
2022/11/26 05:34:09;;;;;;;7.45;3.10;;;17.60;44.30;;;;;;5055977;28;20486;-58
2022/11/26 05:36:34;;;;;;;6.53;2.70;;;17.60;44.30;;;;;;5055852;28;20468;-59
2022/11/26 05:39:00;;;;;;;6.22;2.70;;;17.60;44.30;;;;;;5038765;28;20044;-57
2022/11/26 05:41:26;;;;;;;5.10;2.45;;;17.60;44.30;;;;;;5056096;28;20043;-55
2022/11/26 05:43:52;;;;;;;5.07;2.63;;;17.60;44.30;;;;;;5056585;28;20029;-58
2022/11/26 05:46:18;;;;;;;5.53;2.75;;;17.60;44.30;;;;;;5038318;28;20348;-59
2022/11/26 05:48:44;;;;;;;5.57;2.60;;;17.60;44.30;;;;;;5038878;28;20041;-58
2022/11/26 05:51:10;;;;;;;5.85;2.60;;;17.60;44.30;;;;;;5056218;28;20048;-56
2022/11/26 05:53:36;;;;;;;5.30;2.60;;;17.60;44.30;;;;;;5038097;28;20068;-55
2022/11/26 05:56:02;;;;;;;4.55;2.45;;;17.60;44.30;;;;;;5038354;28;20035;-58
2022/11/26 05:58:28;;;;;;;5.88;2.75;;;17.60;44.30;;;;;;5038119;28;20115;-58
2022/11/26 06:00:53;;;;;;;4.15;2.53;;;17.60;44.30;;;;;;5055466;28;20029;-59
2022/11/26 06:03:19;;;;;;;6.22;2.80;;;17.60;44.30;;;;;;5022081;28;20076;-55
2022/11/26 06:05:45;;;;;;;5.63;2.40;;;17.60;44.30;;;;;;5038183;28;20037;-57
2022/11/26 06:08:11;;;;;;;8.25;3.35;;;17.60;44.30;;;;;;5038302;28;20045;-54
2022/11/26 06:10:37;;;;;;;6.30;2.92;;;17.60;44.30;;;;;;5055446;28;20044;-57
2022/11/26 06:13:03;;;;;;;5.50;2.45;;;17.60;44.30;;;;;;5038161;28;20041;-58
2022/11/26 06:15:28;;;;;;;5.15;2.67;;;17.60;44.30;;;;;;5055598;28;20025;-60
2022/11/26 06:17:54;;;;;;;5.28;2.78;;;17.60;44.30;;;;;;5055196;28;20045;-58
2022/11/26 06:20:20;;;;;;;4.97;2.63;;;17.60;44.20;;;;;;5037490;28;20033;-56
2022/11/26 06:22:46;;;;;;;4.65;2.58;;;17.60;44.20;;;;;;5055488;28;20083;-59
2022/11/26 06:25:13;;;;;;;7.22;3.13;;;17.50;44.10;;;;;;5037458;28;20029;-58
2022/11/26 06:27:40;;;;;;;6.70;2.75;;;17.50;44.10;;;;;;5055288;28;20044;-57
2022/11/26 06:30:08;;;;;;;5.97;2.55;;;17.50;44.10;;;;;;5037460;28;20048;-57
2022/11/26 06:32:34;;;;;;;4.95;2.53;;;17.50;44.00;;;;;;5037852;28;20045;-57
2022/11/26 06:35:00;;;;;;;6.25;2.63;;;17.50;44.00;;;;;;5021226;28;20068;-57
2022/11/26 06:37:25;;;;;;;6.30;2.72;;;17.50;44.00;;;;;;5038028;28;20083;-56
2022/11/26 06:39:51;;;;;;;5.97;3.00;;;17.50;44.00;;;;;;5037754;28;20115;-58
2022/11/26 06:42:18;;;;;;;5.15;2.55;;;17.60;44.00;;;;;;5021214;28;20082;-60
2022/11/26 06:44:45;;;;;;;4.90;2.78;;;17.60;44.00;;;;;;5055004;28;20029;-59
2022/11/26 06:47:14;;;;;;;6.15;2.90;;;17.60;44.00;;;;;;5021216;28;20467;-55
2022/11/26 06:49:40;;;;;;;4.68;2.50;;;17.60;43.90;;;;;;5037564;28;20033;-58
2022/11/26 06:52:06;;;;;;;6.97;2.95;;;17.50;43.90;;;;;;5055201;28;20494;-57
2022/11/26 06:54:32;;;;;;;5.15;2.33;;;17.60;43.90;;;;;;5054788;28;20122;-56
2022/11/26 06:56:58;;;;;;;5.65;2.75;;;17.50;43.90;;;;;;5055234;28;20410;-59
2022/11/26 06:59:24;;;;;;;6.18;3.10;;;17.60;43.90;;;;;;5054696;28;20038;-57
2022/11/26 07:01:50;;;;;;;6.18;2.97;;;17.50;43.80;;;;;;5054788;28;20037;-56
2022/11/26 07:04:16;;;;;;;6.82;3.38;;;17.50;43.80;;;;;;5055138;28;20025;-56
2022/11/26 07:06:44;;;;;;;6.07;2.90;;;17.50;43.70;;;;;;5037792;28;20037;-57
2022/11/26 07:09:10;;;;;;;4.85;2.53;;;17.60;43.70;;;;;;5037208;28;20036;-58
2022/11/26 07:11:38;;;;;;;6.93;2.97;;;17.50;43.60;;;;;;5054596;28;20047;-55
2022/11/26 07:14:05;;;;;;;5.43;2.80;;;17.50;43.60;;;;;;5036799;28;20044;-58
2022/11/26 07:16:31;;;;;;;5.78;2.90;;;17.50;43.60;;;;;;5054815;28;20033;-60
2022/11/26 07:18:57;;;;;;;5.32;2.50;;;17.60;43.60;;;;;;5054804;28;20079;-57
2022/11/26 07:21:24;;;;;;;6.13;3.10;;;17.50;43.60;;;;;;5054410;28;20334;-58
2022/11/26 07:23:51;;;;;;;4.72;2.60;;;17.60;43.60;;;;;;5054209;28;20044;-57
2022/11/26 07:26:18;;;;;;;6.30;3.15;;;17.50;43.50;;;;;;5055359;28;20040;-57
2022/11/26 07:28:46;;;;;;;6.38;3.33;;;17.50;43.50;;;;;;5036973;28;20063;-56
2022/11/26 07:31:14;;;;;;;5.03;2.67;;;17.50;43.40;;;;;;5054130;28;20037;-55
2022/11/26 07:33:40;;;;;;;4.50;2.55;;;17.60;43.40;;;;;;5055353;28;20071;-57
2022/11/26 07:36:12;;;;;;;5.18;2.78;;;17.60;43.40;;;;;;5036836;28;20036;-58
2022/11/26 07:38:38;;;;;;;4.53;2.40;;;17.50;43.30;;;;;;5020427;28;20029;-56
2022/11/26 07:41:09;;;;;;;4.70;2.60;;;17.50;43.30;;;;;;5038665;28;20044;-56
2022/11/26 07:43:37;;;;;;;5.60;2.80;;;17.60;43.30;;;;;;5057922;28;20118;-56
2022/11/26 07:46:04;;;;;;;5.88;2.67;;;17.50;43.10;;;;;;5058613;28;20033;-58
2022/11/26 07:48:31;;;;;;;4.20;3.00;;;17.50;43.10;;;;;;5058320;28;20106;-55
2022/11/26 07:50:58;;;;;;;6.45;2.92;;;17.50;43.00;;;;;;5058012;28;20052;-55
2022/11/26 07:53:26;;;;;;;3.85;2.58;;;17.60;43.00;;;;;;5058108;28;20082;-57
2022/11/26 07:55:52;;;;;;;4.20;2.50;;;17.50;42.90;;;;;;5058327;28;20055;-58
2022/11/26 07:58:18;;;;;;;4.93;3.05;;;17.50;42.90;;;;;;5058471;28;20060;-58
2022/11/26 08:00:44;;;;;;;5.90;2.83;;;17.50;42.80;;;;;;5057880;28;20420;-58
2022/11/26 08:03:09;;;;;;;4.47;2.33;;;17.60;42.90;;;;;;5040454;28;20065;-57
2022/11/26 08:05:43;;;;;;;5.43;3.17;;;17.50;42.70;;;;;;5057713;28;20028;-59
2022/11/26 08:08:10;;;;;;;4.97;3.05;;;17.50;42.70;;;;;;5040407;28;20452;-59
2022/11/26 08:10:36;;;;;;;4.85;3.25;;;17.50;42.70;;;;;;5057783;28;20064;-57
2022/11/26 08:13:02;;;;;;;6.75;3.25;;;17.50;42.80;;;;;;5040250;28;20032;-52
2022/11/26 08:15:28;;;;;;;4.57;2.42;;;17.50;42.80;;;;;;5057262;28;20460;-56
2022/11/26 08:17:55;;;;;;;6.25;2.80;;;17.50;42.80;;;;;;5057879;28;20090;-57
2022/11/26 08:20:21;;;;;;;5.00;3.03;;;17.50;42.90;;;;;;5057482;28;20045;-58
2022/11/26 08:22:47;;;;;;;7.07;3.72;;;17.50;42.90;;;;;;5057509;28;20029;-57
2022/11/26 08:25:13;;;;;;;6.13;3.13;;;17.50;42.90;;;;;;5039780;28;20091;-55
2022/11/26 08:27:39;;;;;;;5.28;3.15;;;17.50;42.90;;;;;;5057185;28;20091;-57
2022/11/26 08:30:06;;;;;;;6.43;2.90;;;17.50;42.90;;;;;;5058116;28;20063;-56
2022/11/26 08:32:32;;;;;;;5.97;3.08;;;17.50;42.90;;;;;;5057105;28;20033;-58
2022/11/26 08:34:58;;;;;;;4.35;2.72;;;17.50;42.90;;;;;;5057672;28;20114;-55
2022/11/26 08:37:24;;;;;;;5.38;2.78;;;17.50;42.90;;;;;;5040445;28;20029;-57
2022/11/26 08:39:50;;;;;;;5.32;2.80;;;17.50;43.00;;;;;;5057357;28;20395;-57
2022/11/26 08:42:16;;;;;;;5.78;2.97;;;17.50;43.00;;;;;;5057088;28;20043;-54
2022/11/26 08:44:41;;;;;;;7.05;3.20;;;17.50;43.10;;;;;;5057177;28;20132;-56
2022/11/26 08:47:08;;;;;;;5.88;2.78;;;17.50;43.10;;;;;;5057241;28;20025;-57
2022/11/26 08:49:34;;;;;;;6.82;2.92;;;17.60;43.20;;;;;;5039346;28;20170;-58
2022/11/26 08:52:00;;;;;;;6.20;3.25;;;17.50;43.20;;;;;;5056322;28;20151;-54
2022/11/26 08:54:25;;;;;;;6.35;3.03;;;17.60;43.30;;;;;;5056817;28;20087;-56
2022/11/26 08:56:52;;;;;;;5.97;2.88;;;17.50;43.30;;;;;;5039162;28;20106;-58
2022/11/26 08:59:21;;;;;;;5.65;2.88;;;17.50;43.30;;;;;;5039191;28;20033;-58
2022/11/26 09:01:47;;;;;;;4.63;2.80;;;17.60;43.40;;;;;;5056723;28;20040;-56
2022/11/26 09:04:13;;;;;;;6.28;3.17;;;17.60;43.40;;;;;;5056844;28;20040;-52
2022/11/26 09:06:40;;;;;;;4.38;2.80;;;17.50;43.40;;;;;;5057240;28;20040;-57
2022/11/26 09:09:12;;;;;;;4.88;2.88;;;17.60;43.50;;;;;;5056889;28;20475;-56
2022/11/26 09:11:49;;;;;;;5.45;2.75;;;17.50;43.40;;;;;;5055911;28;20041;-57
2022/11/26 09:14:18;;;;;;;6.32;3.15;;;17.50;43.40;;;;;;5039441;28;20024;-57
2022/11/26 09:16:44;;;;;;;4.47;2.60;;;17.50;43.40;;;;;;5056693;28;20029;-58
2022/11/26 09:19:12;;;;;;;7.13;3.42;;;17.60;43.60;;;;;;5056677;28;20347;-58
2022/11/26 09:21:38;;;;;;;6.57;3.08;;;17.60;43.60;;;;;;5039072;28;20040;-57
2022/11/26 09:24:04;;;;;;;5.00;2.97;;;17.50;43.60;;;;;;5038700;28;20036;-57
2022/11/26 09:26:32;;;;;;;7.47;3.22;;;17.50;43.60;;;;;;5056449;28;20455;-58
2022/11/26 09:28:58;;;;;;;5.97;3.17;;;17.60;43.60;;;;;;5056492;28;20052;-58
2022/11/26 09:31:24;;;;;;;4.65;2.75;;;17.60;43.70;;;;;;5056306;28;20383;-55
2022/11/26 09:33:50;;;;;;;5.32;2.95;;;17.50;43.60;;;;;;5056813;28;20448;-59
2022/11/26 09:36:17;;;;;;;5.63;2.97;;;17.50;43.70;;;;;;5056570;28;20056;-57
2022/11/26 09:38:43;;;;;;;5.13;3.05;;;17.60;43.70;;;;;;5055767;28;20401;-58
2022/11/26 09:41:31;;;;;;;4.88;3.03;;;17.60;43.70;;;;;;5055862;28;20039;-55
2022/11/26 09:44:11;;;;;;;6.78;3.05;;;17.50;43.70;;;;;;5055794;28;20021;-58
2022/11/26 09:47:02;;;;;;;5.40;2.83;;;17.50;43.80;;;;;;5056490;28;20033;-55
2022/11/26 09:49:34;;;;;;;5.25;2.92;;;17.50;43.80;;;;;;5038223;28;20033;-53
2022/11/26 09:52:00;;;;;;;5.18;2.97;;;17.50;43.80;;;;;;5055463;28;20087;-56
2022/11/26 09:54:28;;;;;;;6.10;3.15;;;17.60;43.90;;;;;;5038424;28;20068;-56
2022/11/26 09:57:05;;;;;;;7.22;2.92;;;17.60;44.00;;;;;;5055318;28;20098;-58
2022/11/26 09:59:31;;;;;;;5.32;3.20;;;17.50;44.00;;;;;;5056075;28;20025;-58
2022/11/26 10:01:56;;;;;;;6.00;3.22;;;17.60;44.10;;;;;;5037996;28;20032;-54
2022/11/26 10:04:32;;;;;;;4.40;2.80;;;17.60;44.10;;;;;;5055007;28;20037;-53
2022/11/26 10:07:19;;;;;;;5.43;2.60;;;17.60;44.20;;;;;;5055598;28;20028;-59
2022/11/26 10:10:00;;;;;;;5.57;2.78;;;17.60;44.20;;;;;;5055665;28;20088;-55
2022/11/26 10:12:50;;;;;;;8.13;3.20;;;17.60;44.30;;;;;;5055562;28;20115;-57
2022/11/26 10:15:25;;;;;;;6.00;3.15;;;17.50;44.30;;;;;;5055578;28;20033;-55
2022/11/26 10:18:09;;;;;;;5.72;3.03;;;17.50;44.40;;;;;;5038260;28;20346;-57
2022/11/26 10:20:49;;;;;;;5.90;3.20;;;17.50;44.40;;;;;;5055125;28;20043;-57
2022/11/26 10:23:32;;;;;;;4.63;3.08;;;17.50;44.40;;;;;;5037636;28;20029;-55
2022/11/26 10:26:05;;;;;;;6.32;3.40;;;17.50;44.40;;;;;;5037345;28;20456;-59
2022/11/26 10:28:45;;;;;;;5.15;3.03;;;17.50;44.40;;;;;;5055433;28;20040;-58
2022/11/26 10:31:23;;;;;;;5.57;3.30;;;17.50;44.60;;;;;;5037632;28;20059;-56
2022/11/26 10:34:01;;;;;;;4.53;2.70;;;17.60;44.70;;;;;;5037482;28;20033;-54
2022/11/26 10:36:47;;;;;;;5.35;3.40;;;17.50;44.80;;;;;;5055160;28;20102;-56
2022/11/26 10:39:16;;;;;;;7.63;3.28;;;17.60;44.90;;;;;;5054970;28;20091;-58
2022/11/26 10:41:43;;;;;;;5.57;2.92;;;17.50;44.90;;;;;;5054961;28;20394;-57
2022/11/26 10:44:28;;;;;;;6.88;3.40;;;17.60;45.00;;;;;;5054791;28;20119;-58
2022/11/26 10:46:54;;;;;;;;;;;17.50;45.00;;;;;;5055334;28;20379;-58
2022/11/26 10:49:27;;;;;;;8.18;3.10;;;17.50;45.10;;;;;;5054848;28;19909;-60
2022/11/26 10:52:00;;;;;;;5.28;2.95;;;17.50;45.10;;;;;;5038048;28;20060;-56
2022/11/26 10:54:34;;;;;;;6.18;3.30;;;17.50;45.30;;;;;;5054472;28;20032;-55
2022/11/26 10:57:16;;;;;;;5.88;2.80;;;17.50;45.40;;;;;;5054875;28;20433;-58
2022/11/26 10:59:50;;;;;;;5.63;2.83;;;17.50;45.50;;;;;;5055365;28;20047;-55
2022/11/26 11:02:19;;;;;;;7.38;2.97;;;17.50;45.50;;;;;;5054602;28;20025;-58
2022/11/26 11:04:49;;;;;;;4.80;2.80;;;17.60;45.70;;;;;;5037412;28;20079;-54
2022/11/26 11:07:40;;;;;;;6.97;2.88;;;17.60;45.80;;;;;;5054672;28;20025;-55
2022/11/26 11:10:09;;;;;;;6.38;3.00;;;17.50;45.80;;;;;;5054232;28;20071;-59
2022/11/26 11:12:39;;;;;;;6.57;3.08;;;17.50;45.90;;;;;;5054685;28;20102;-57
2022/11/26 11:15:19;;;;;;;6.97;2.78;;;17.50;46.00;;;;;;5039599;28;20123;-58
2022/11/26 11:17:53;;;;;;;5.18;2.47;;;17.50;46.70;;;;;;5058710;28;20395;-59
2022/11/26 11:20:49;;;;;;;5.78;2.58;;;17.50;46.10;;;;;;5058299;28;20118;-56
2022/11/26 11:23:15;;;;;;;7.68;2.67;;;17.60;46.20;;;;;;5051743;28;20041;-58
2022/11/26 11:25:46;;;;;;;5.80;2.85;;;17.60;46.20;;;;;;5040520;28;20028;-55
2022/11/26 11:28:11;;;;;;;4.75;2.13;;;17.60;46.30;;;;;;5058514;28;20056;-60
2022/11/26 11:30:39;;;;;;;7.20;2.78;;;17.60;46.40;;;;;;5058193;28;20083;-56
2022/11/26 11:33:19;;;;;;;5.72;2.60;;;17.60;47.00;;;;;;5024303;28;20124;-58
2022/11/26 11:36:23;;;;;;;6.60;2.85;;;17.60;46.50;;;;;;5040769;28;20108;-58
2022/11/26 11:38:55;;;;;;;5.32;2.75;;;17.60;46.60;;;;;;5017130;28;20044;-58
2022/11/26 11:41:43;;;;;;;8.10;3.20;;;17.60;46.60;;;;;;5058560;28;20102;-60
2022/11/26 11:44:16;;;;;;;6.57;2.63;;;17.60;46.70;;;;;;5040782;28;20033;-60
2022/11/26 11:47:19;;;;;;;6.90;2.45;;;17.60;46.70;;;;;;5058271;28;20071;-58
2022/11/26 11:50:07;;;;;;;8.07;2.95;;;17.60;46.80;;;;;;5058613;28;20037;-58
2022/11/26 11:52:46;;;;;;;6.38;2.67;;;17.60;46.80;;;;;;5058618;28;20040;-57
2022/11/26 11:55:17;;;;;;;8.30;2.95;;;17.60;46.90;;;;;;5024334;28;20049;-59
2022/11/26 11:58:05;;;;;;;5.65;2.70;;;17.60;47.00;;;;;;5058272;28;20043;-59
2022/11/26 12:01:15;;;;;;;5.43;2.50;;;17.60;47.00;;;;;;5058278;28;20037;-55
2022/11/26 12:03:53;;;;;;;5.18;2.40;;;17.60;47.10;;;;;;4960757;28;20561;-59
2022/11/26 12:06:46;;;;;;;5.53;2.20;;;17.60;47.10;;;;;;4976992;28;20038;-58
2022/11/26 12:09:29;;;;;;;6.95;2.47;;;17.70;47.20;;;;;;5039979;28;20041;-57
2022/11/26 12:12:16;;;;;;;5.95;2.55;;;17.70;47.30;;;;;;5039851;28;20044;-57
2022/11/26 12:14:46;;;;;;;5.38;2.22;;;17.60;47.30;;;;;;5057281;28;20033;-58
2022/11/26 12:17:14;;;;;;;5.05;2.40;;;17.70;47.40;;;;;;5057541;28;20091;-59
2022/11/26 12:19:48;;;;;;;6.50;2.65;;;17.70;47.50;;;;;;5057120;28;20045;-57
2022/11/26 12:22:33;;;;;;;6.40;2.65;;;17.70;47.50;;;;;;5057963;28;20127;-54
2022/11/26 12:25:27;;;;;;;5.57;2.22;;;17.70;47.60;;;;;;5057366;28;20064;-57
2022/11/26 12:27:59;;;;;;;6.00;2.50;;;17.70;47.60;;;;;;5057040;28;20372;-58
2022/11/26 12:30:39;;;;;;;6.82;2.70;;;17.70;47.70;;;;;;5057604;28;20090;-56
2022/11/26 12:33:15;;;;;;;7.05;3.17;;;17.70;47.70;;;;;;5039806;28;20040;-58
2022/11/26 12:35:49;;;;;;;4.05;2.08;;;17.70;47.80;;;;;;5057509;28;20040;-58
2022/11/26 12:38:21;;;;;;;5.97;2.70;;;17.70;47.90;;;;;;5057373;28;20414;-59
2022/11/26 12:40:53;;;;;;;7.82;2.67;;;17.70;47.90;;;;;;5057059;28;20040;-57
2022/11/26 12:43:28;;;;;;;5.72;2.33;;;17.70;47.90;;;;;;5056834;28;20033;-58
2022/11/26 12:46:00;;;;;;;6.25;2.40;;;17.70;48.00;;;;;;5057069;28;20364;-54
2022/11/26 12:48:35;;;;;;;7.05;2.63;;;17.80;48.00;;;;;;5039251;28;20411;-58
2022/11/26 12:51:18;;;;;;;5.70;2.25;;;17.80;48.10;;;;;;5038949;28;20313;-56
2022/11/26 12:54:04;;;;;;;7.85;2.20;;;17.80;48.10;;;;;;5057088;28;20046;-59
2022/11/26 12:56:52;;;;;;;7.40;2.20;;;17.80;48.10;;;;;;5056918;28;20036;-59
2022/11/26 12:59:21;;;;;;;5.72;2.10;;;17.80;48.10;;;;;;5019517;28;20053;-57
2022/11/26 13:01:47;;;;;;;6.00;2.20;;;17.80;48.20;;;;;;5039260;28;20067;-57
2022/11/26 13:04:13;;;;;;;5.15;2.10;;;17.80;48.20;;;;;;5056528;28;20045;-57